createdAt,value
2023-04-17T00:02:38.894Z,32.00
2023-04-17T00:05:44.151Z,22.75
2023-04-17T00:08:46.724Z,24.75
2023-04-17T00:11:49.427Z,25.50
2023-04-17T00:14:51.856Z,28.50
2023-04-17T00:17:54.686Z,27.75
2023-04-17T00:20:57.393Z,26.75
2023-04-17T00:24:00.292Z,32.00
2023-04-17T00:27:03.580Z,29.50
2023-04-17T00:30:09.117Z,32.00
2023-04-17T00:33:13.518Z,28.50
2023-04-17T00:36:16.258Z,25.50
2023-04-17T00:39:18.837Z,25.50
2023-04-17T00:42:22.038Z,30.75
2023-04-17T00:45:24.661Z,44.75
2023-04-17T00:48:27.761Z,28.50
2023-04-17T00:51:32.069Z,30.25
2023-04-17T00:54:36.157Z,29.00
2023-04-17T00:57:38.950Z,26.00
2023-04-17T01:00:42.382Z,30.75
2023-04-17T01:03:45.189Z,32.25
2023-04-17T01:06:48.306Z,28.25
2023-04-17T01:09:51.111Z,23.50
2023-04-17T01:13:04.950Z,34.25
2023-04-17T01:16:08.599Z,23.75
2023-04-17T01:19:13.996Z,25.50
2023-04-17T01:22:17.096Z,22.75
2023-04-17T01:25:20.806Z,30.50
2023-04-17T01:28:24.048Z,24.50
2023-04-17T01:31:30.459Z,31.25
2023-04-17T01:34:33.636Z,34.75
2023-04-17T01:37:37.620Z,29.50
2023-04-17T01:40:41.206Z,30.50
2023-04-17T01:43:47.076Z,34.00
2023-04-17T01:46:49.665Z,30.00
2023-04-17T01:49:52.874Z,32.50
2023-04-17T01:52:55.576Z,29.75
2023-04-17T01:55:58.675Z,36.75
2023-04-17T01:59:01.108Z,33.25
2023-04-17T02:02:04.064Z,34.00
2023-04-17T02:05:07.303Z,37.00
2023-04-17T02:08:10.179Z,25.50
2023-04-17T02:11:13.982Z,25.25
2023-04-17T02:14:18.723Z,28.25
2023-04-17T02:17:21.335Z,32.50
2023-04-17T02:20:24.479Z,28.25
2023-04-17T02:23:26.947Z,33.00
2023-04-17T02:26:29.870Z,30.00
2023-04-17T02:29:32.305Z,31.50
2023-04-17T02:32:35.305Z,31.50
2023-04-17T02:35:39.763Z,26.75
2023-04-17T02:38:42.557Z,26.50
2023-04-17T02:41:45.141Z,30.25
2023-04-17T02:44:48.265Z,32.75
2023-04-17T02:47:50.828Z,36.25
2023-04-17T02:50:54.584Z,27.00
2023-04-17T02:53:57.885Z,32.25
2023-04-17T02:57:02.139Z,32.25
2023-04-17T03:00:15.091Z,34.25
2023-04-17T03:03:18.578Z,38.25
2023-04-17T03:06:21.947Z,29.00
2023-04-17T03:09:25.173Z,33.75
2023-04-17T03:12:27.839Z,38.25
2023-04-17T03:15:31.038Z,34.25
2023-04-17T03:18:36.288Z,34.25
2023-04-17T03:21:39.241Z,35.25
2023-04-17T03:24:42.083Z,35.50
2023-04-17T03:27:45.808Z,29.50
2023-04-17T03:30:50.693Z,26.00
2023-04-17T03:33:54.017Z,31.25
2023-04-17T03:36:57.443Z,32.25
2023-04-17T03:40:00.335Z,34.00
2023-04-17T03:43:02.878Z,31.25
2023-04-17T03:46:08.053Z,32.75
2023-04-17T03:49:13.596Z,32.75
2023-04-17T03:52:16.570Z,29.50
2023-04-17T03:55:21.245Z,34.00
2023-04-17T03:58:25.683Z,40.75
2023-04-17T04:01:28.663Z,30.25
2023-04-17T04:05:04.056Z,32.00
2023-04-17T04:08:06.634Z,33.75
2023-04-17T04:11:16.829Z,33.50
2023-04-17T04:14:19.950Z,32.00
2023-04-17T04:17:24.478Z,39.00
2023-04-17T04:20:27.211Z,32.25
2023-04-17T04:23:41.665Z,33.75
2023-04-17T04:26:49.938Z,45.75
2023-04-17T04:29:58.880Z,38.25
2023-04-17T04:33:06.260Z,37.75
2023-04-17T04:36:09.273Z,35.50
2023-04-17T04:39:12.266Z,43.50
2023-04-17T04:42:22.404Z,39.00
2023-04-17T04:45:49.216Z,36.25
2023-04-17T04:48:52.553Z,39.00
2023-04-17T04:51:55.173Z,35.00
2023-04-17T04:55:05.041Z,39.50
2023-04-17T04:58:10.048Z,45.50
2023-04-17T05:01:15.468Z,38.75
2023-04-17T05:04:20.994Z,39.50
2023-04-17T05:07:27.565Z,39.00
2023-04-17T05:10:31.601Z,38.50
2023-04-17T05:13:37.547Z,35.50
2023-04-17T05:16:44.867Z,45.25
2023-04-17T05:19:49.197Z,35.00
2023-04-17T05:22:52.027Z,39.50
2023-04-17T05:25:54.791Z,41.00
2023-04-17T05:28:57.313Z,39.50
2023-04-17T05:32:03.858Z,39.25
2023-04-17T05:35:36.086Z,44.25
2023-04-17T05:38:38.851Z,41.50
2023-04-17T05:41:43.391Z,43.25
2023-04-17T05:44:46.155Z,38.50
2023-04-17T05:47:48.635Z,38.75
2023-04-17T05:50:51.553Z,37.50
2023-04-17T05:53:54.135Z,42.75
2023-04-17T05:56:57.038Z,37.00
2023-04-17T05:59:59.664Z,38.00
2023-04-17T06:03:03.446Z,36.75
2023-04-17T06:06:10.950Z,36.75
2023-04-17T06:09:13.883Z,40.50
2023-04-17T06:12:16.576Z,39.00
2023-04-17T06:15:21.578Z,34.50
2023-04-17T06:18:24.730Z,38.75
2023-04-17T06:21:27.885Z,43.50
2023-04-17T06:24:30.643Z,40.00
2023-04-17T06:27:36.379Z,37.25
2023-04-17T06:30:39.685Z,41.25
2023-04-17T06:33:43.926Z,38.75
2023-04-17T06:36:46.693Z,39.25
2023-04-17T06:39:53.627Z,49.25
2023-04-17T06:42:56.221Z,44.50
2023-04-17T06:46:03.353Z,46.75
2023-04-17T06:49:09.033Z,41.75
2023-04-17T06:52:12.023Z,54.00
2023-04-17T06:55:14.381Z,38.00
2023-04-17T06:58:17.178Z,39.25
2023-04-17T07:01:20.152Z,35.50
2023-04-17T07:04:22.965Z,46.00
2023-04-17T07:07:25.798Z,34.75
2023-04-17T07:10:28.481Z,35.75
2023-04-17T07:13:33.319Z,32.25
2023-04-17T07:16:36.315Z,37.25
2023-04-17T07:19:38.882Z,30.50
2023-04-17T07:22:41.705Z,38.25
2023-04-17T07:25:44.133Z,37.00
2023-04-17T07:28:46.864Z,34.50
2023-04-17T07:31:49.249Z,32.25
2023-04-17T07:34:52.333Z,31.50
2023-04-17T07:37:56.201Z,35.00
2023-04-17T07:40:59.614Z,35.00
2023-04-17T07:44:06.001Z,28.50
2023-04-17T07:47:08.705Z,35.75
2023-04-17T07:50:11.337Z,38.25
2023-04-17T07:53:14.027Z,33.50
2023-04-17T07:56:17.736Z,31.75
2023-04-17T07:59:21.461Z,33.00
2023-04-17T08:02:23.928Z,29.00
2023-04-17T08:05:26.759Z,36.50
2023-04-17T08:08:29.194Z,34.25
2023-04-17T08:11:35.678Z,34.75
2023-04-17T08:14:43.833Z,27.25
2023-04-17T08:17:46.559Z,35.50
2023-04-17T08:20:49.014Z,25.00
2023-04-17T08:23:51.837Z,31.00
2023-04-17T08:26:54.141Z,29.00
2023-04-17T08:29:57.258Z,33.25
2023-04-17T08:32:59.732Z,35.00
2023-04-17T08:36:04.281Z,33.00
2023-04-17T08:39:10.239Z,25.00
2023-04-17T08:42:17.737Z,29.75
2023-04-17T08:45:24.314Z,35.50
2023-04-17T08:48:27.333Z,27.00
2023-04-17T08:51:29.662Z,30.00
2023-04-17T08:54:35.387Z,33.75
2023-04-17T08:57:59.005Z,31.75
2023-04-17T09:01:10.935Z,30.50
2023-04-17T09:04:37.572Z,33.75
2023-04-17T09:07:44.646Z,30.25
2023-04-17T09:10:48.951Z,30.00
2023-04-17T09:13:51.622Z,30.25
2023-04-17T09:16:55.182Z,30.75
2023-04-17T09:20:12.379Z,33.25
2023-04-17T09:23:14.772Z,34.25
2023-04-17T09:26:28.794Z,29.50
2023-04-17T09:29:31.453Z,27.75
2023-04-17T09:32:34.930Z,35.50
2023-04-17T09:35:40.098Z,29.50
2023-04-17T09:38:43.083Z,25.25
2023-04-17T09:41:45.410Z,27.00
2023-04-17T09:44:48.531Z,27.00
2023-04-17T09:47:53.315Z,32.25
2023-04-17T09:50:56.575Z,24.00
2023-04-17T09:53:59.550Z,25.75
2023-04-17T09:57:03.894Z,30.50
2023-04-17T10:00:11.153Z,27.75
2023-04-17T10:03:17.442Z,25.50
2023-04-17T10:06:20.079Z,29.00
2023-04-17T10:09:22.946Z,25.25
2023-04-17T10:12:25.425Z,29.25
2023-04-17T10:15:28.913Z,27.75
2023-04-17T10:18:31.552Z,27.50
2023-04-17T10:21:35.275Z,25.50
2023-04-17T10:24:38.044Z,25.50
2023-04-17T10:27:40.701Z,28.25
2023-04-17T10:30:51.377Z,28.25
2023-04-17T10:33:54.648Z,27.75
2023-04-17T10:36:58.356Z,26.50
2023-04-17T10:40:02.513Z,29.25
2023-04-17T10:43:12.246Z,30.00
2023-04-17T10:46:15.351Z,22.25
2023-04-17T10:49:17.712Z,30.00
2023-04-17T10:52:32.931Z,28.00
2023-04-17T10:55:49.165Z,29.00
2023-04-17T10:59:05.504Z,28.00
2023-04-17T11:02:08.248Z,26.00
2023-04-17T11:05:12.157Z,27.00
2023-04-17T11:08:14.976Z,21.75
2023-04-17T11:11:26.956Z,26.25
2023-04-17T11:14:33.415Z,24.00
2023-04-17T11:17:40.420Z,26.75
2023-04-17T11:20:42.938Z,25.25
2023-04-17T11:23:54.751Z,25.50
2023-04-17T11:27:00.017Z,22.75
2023-04-17T11:30:02.887Z,26.25
2023-04-17T11:33:06.579Z,30.00
2023-04-17T11:36:09.825Z,22.00
2023-04-17T11:39:15.437Z,18.00
2023-04-17T11:42:36.434Z,19.75
2023-04-17T11:45:41.411Z,23.00
2023-04-17T11:48:44.143Z,24.25
2023-04-17T11:51:46.982Z,20.75
2023-04-17T11:54:58.345Z,19.75
2023-04-17T11:58:05.998Z,23.00
2023-04-17T12:01:08.699Z,19.50
2023-04-17T12:04:21.248Z,21.00
2023-04-17T12:07:25.020Z,20.00
2023-04-17T12:10:58.010Z,21.00
2023-04-17T12:14:01.623Z,22.25
2023-04-17T12:17:04.118Z,23.00
2023-04-17T12:20:07.237Z,22.50
2023-04-17T12:23:09.581Z,22.50
2023-04-17T12:26:12.286Z,22.75
2023-04-17T12:29:15.953Z,23.25
2023-04-17T12:32:18.767Z,20.25
2023-04-17T12:35:22.970Z,20.00
2023-04-17T12:38:25.718Z,25.75
2023-04-17T12:41:28.064Z,23.00
2023-04-17T12:44:30.852Z,21.25
2023-04-17T12:47:33.326Z,19.75
2023-04-17T12:50:42.602Z,21.75
2023-04-17T12:53:44.972Z,23.00
2023-04-17T12:56:47.838Z,23.00
2023-04-17T12:59:50.417Z,21.75
2023-04-17T13:02:53.189Z,18.00
2023-04-17T13:05:55.945Z,17.00
2023-04-17T13:08:59.137Z,17.25
2023-04-17T13:12:01.647Z,19.75
2023-04-17T13:15:04.787Z,17.50
2023-04-17T13:18:08.343Z,19.50
2023-04-17T13:21:11.133Z,16.50
2023-04-17T13:24:14.989Z,14.50
2023-04-17T13:27:17.752Z,20.50
2023-04-17T13:30:20.124Z,16.25
2023-04-17T13:33:22.838Z,18.50
2023-04-17T13:36:25.209Z,18.50
2023-04-17T13:39:27.969Z,17.00
2023-04-17T13:42:30.286Z,13.50
2023-04-17T13:45:32.984Z,17.00
2023-04-17T13:48:35.696Z,18.00
2023-04-17T13:51:38.409Z,12.50
2023-04-17T13:54:41.473Z,13.75
2023-04-17T13:57:44.239Z,16.50
2023-04-17T14:00:46.988Z,20.00
2023-04-17T14:03:49.772Z,19.25
2023-04-17T14:06:52.208Z,18.25
2023-04-17T14:09:54.898Z,16.25
2023-04-17T14:12:57.279Z,15.75
2023-04-17T14:16:00.249Z,18.00
2023-04-17T14:19:12.557Z,12.50
2023-04-17T14:22:17.001Z,18.25
2023-04-17T14:25:19.316Z,22.50
2023-04-17T14:28:22.812Z,16.00
2023-04-17T14:31:25.222Z,17.25
2023-04-17T14:34:28.063Z,15.50
2023-04-17T14:37:30.581Z,19.75
2023-04-17T14:40:33.436Z,18.75
2023-04-17T14:43:35.786Z,17.75
2023-04-17T14:46:38.454Z,21.00
2023-04-17T14:49:40.888Z,22.25
2023-04-17T14:52:43.706Z,21.00
2023-04-17T14:55:46.213Z,18.50
2023-04-17T14:58:49.173Z,18.00
2023-04-17T15:01:51.756Z,13.75
2023-04-17T15:04:55.171Z,12.50
2023-04-17T15:07:57.605Z,18.50
2023-04-17T15:11:00.412Z,17.50
2023-04-17T15:14:02.874Z,19.00
2023-04-17T15:17:07.130Z,22.25
2023-04-17T15:20:10.978Z,16.50
2023-04-17T15:23:13.625Z,19.25
2023-04-17T15:26:16.011Z,19.25
2023-04-17T15:29:18.750Z,20.75
2023-04-17T15:32:21.470Z,16.75
2023-04-17T15:35:24.229Z,16.25
2023-04-17T15:38:27.252Z,17.25
2023-04-17T15:41:29.959Z,16.75
2023-04-17T15:44:34.134Z,17.00
2023-04-17T15:47:36.985Z,16.50
2023-04-17T15:50:39.465Z,17.00
2023-04-17T15:53:42.127Z,18.00
2023-04-17T15:56:44.454Z,16.25
2023-04-17T15:59:47.175Z,21.00
2023-04-17T16:02:49.522Z,16.00
2023-04-17T16:05:54.100Z,17.25
2023-04-17T16:08:56.693Z,17.50
2023-04-17T16:11:59.617Z,11.50
2023-04-17T16:15:02.067Z,17.00
2023-04-17T16:18:05.022Z,18.00
2023-04-17T16:21:11.081Z,20.50
2023-04-17T16:24:13.847Z,21.00
2023-04-17T16:27:17.398Z,15.00
2023-04-17T16:30:20.336Z,18.00
2023-04-17T16:33:22.863Z,17.00
2023-04-17T16:36:26.275Z,20.00
2023-04-17T16:39:29.030Z,16.75
2023-04-17T16:42:32.606Z,18.75
2023-04-17T16:45:38.594Z,17.25
2023-04-17T16:48:41.522Z,17.25
2023-04-17T16:51:44.322Z,18.25
2023-04-17T16:54:47.319Z,17.75
2023-04-17T16:57:49.832Z,17.00
2023-04-17T17:00:53.087Z,15.25
2023-04-17T17:03:55.849Z,21.00
2023-04-17T17:06:58.780Z,25.75
2023-04-17T17:10:02.081Z,16.75
2023-04-17T17:13:05.226Z,21.00
2023-04-17T17:16:08.671Z,16.25
2023-04-17T17:19:11.738Z,16.00
2023-04-17T17:22:14.474Z,15.00
2023-04-17T17:25:18.110Z,15.25
2023-04-17T17:28:21.111Z,15.50
2023-04-17T17:31:26.482Z,19.25
2023-04-17T17:37:35.731Z,15.25
2023-04-17T17:40:39.261Z,15.75
2023-04-17T17:43:42.310Z,19.00
2023-04-17T17:46:45.961Z,19.00
2023-04-17T17:49:49.922Z,19.75
2023-04-17T17:52:55.758Z,15.00
2023-04-17T17:56:00.709Z,14.00
2023-04-17T17:59:04.190Z,15.25
2023-04-17T18:02:08.425Z,17.75
2023-04-17T18:05:15.416Z,19.25
2023-04-17T18:08:19.182Z,16.25
2023-04-17T18:11:21.944Z,18.50
2023-04-17T18:14:25.722Z,23.75
2023-04-17T18:17:29.387Z,22.00
2023-04-17T18:20:33.365Z,23.75
2023-04-17T18:23:36.604Z,19.00
2023-04-17T18:26:41.844Z,18.25
2023-04-17T18:29:45.549Z,21.75
2023-04-17T18:32:52.573Z,17.75
2023-04-17T18:35:56.125Z,21.25
2023-04-17T18:39:01.802Z,28.50
2023-04-17T18:42:06.227Z,24.25
2023-04-17T18:45:13.847Z,18.25
2023-04-17T18:48:17.571Z,19.75
2023-04-17T18:51:22.163Z,16.00
2023-04-17T18:54:24.957Z,27.75
2023-04-17T18:57:29.914Z,20.75
2023-04-17T19:00:34.060Z,26.00
2023-04-17T19:03:40.180Z,21.25
2023-04-17T19:06:43.651Z,21.50
2023-04-17T19:09:47.869Z,21.75
2023-04-17T19:12:53.186Z,21.00
2023-04-17T19:15:58.992Z,21.50
2023-04-17T19:19:02.849Z,30.50
2023-04-17T19:22:06.244Z,27.75
2023-04-17T19:25:10.106Z,17.00
2023-04-17T19:28:14.503Z,24.50
2023-04-17T19:31:17.999Z,23.50
2023-04-17T19:34:24.133Z,23.25
2023-04-17T19:37:28.567Z,25.75
2023-04-17T19:40:32.586Z,25.00
2023-04-17T19:43:37.223Z,25.75
2023-04-17T19:46:41.487Z,24.25
2023-04-17T19:49:45.931Z,20.50
2023-04-17T19:52:51.719Z,26.00
2023-04-17T19:55:54.977Z,24.25
2023-04-17T19:59:02.343Z,21.25
2023-04-17T20:02:05.873Z,21.75
2023-04-17T20:05:12.337Z,22.25
2023-04-17T20:08:16.343Z,22.25
2023-04-17T20:11:23.709Z,23.50
2023-04-17T20:14:27.302Z,26.25
2023-04-17T20:17:33.639Z,25.00
2023-04-17T20:20:37.745Z,23.50
2023-04-17T20:23:41.845Z,26.75
2023-04-17T20:26:44.788Z,26.50
2023-04-17T20:29:48.239Z,23.75
2023-04-17T20:32:51.557Z,26.50
2023-04-17T20:35:55.701Z,25.50
2023-04-17T20:39:01.733Z,26.25
2023-04-17T20:42:05.685Z,23.50
2023-04-17T20:45:08.748Z,23.25
2023-04-17T20:48:12.102Z,22.75
2023-04-17T20:51:14.608Z,29.50
2023-04-17T20:54:18.138Z,28.25
2023-04-17T20:57:20.946Z,30.50
2023-04-17T21:00:26.086Z,25.75
2023-04-17T21:03:31.117Z,29.00
2023-04-17T21:06:34.367Z,29.25
2023-04-17T21:09:36.918Z,26.50
2023-04-17T21:12:39.836Z,20.25
2023-04-17T21:15:42.591Z,23.00
2023-04-17T21:18:45.890Z,31.00
2023-04-17T21:21:48.721Z,26.50
2023-04-17T21:24:51.573Z,24.00
2023-04-17T21:27:54.197Z,37.00
2023-04-17T21:30:57.043Z,25.50
2023-04-17T21:34:01.071Z,26.00
2023-04-17T21:37:05.158Z,26.50
2023-04-17T21:40:08.171Z,26.50
2023-04-17T21:43:11.022Z,25.00
2023-04-17T21:46:13.522Z,29.25
2023-04-17T21:49:16.982Z,31.25
2023-04-17T21:52:19.526Z,32.75
2023-04-17T21:55:22.522Z,36.25
2023-04-17T21:58:24.983Z,38.25
2023-04-17T22:01:28.181Z,30.75
2023-04-17T22:04:31.007Z,26.00
2023-04-17T22:07:40.726Z,31.25
2023-04-17T22:10:50.217Z,29.75
2023-04-17T22:13:53.065Z,16.50
2023-04-17T22:16:55.545Z,26.25
2023-04-17T22:20:00.820Z,40.00
2023-04-17T22:23:21.851Z,39.25
2023-04-17T22:26:43.243Z,31.25
2023-04-17T22:30:22.828Z,28.75
2023-04-17T22:34:02.946Z,30.25
2023-04-17T22:38:01.792Z,31.00
2023-04-17T22:41:23.544Z,38.75
2023-04-17T22:45:22.422Z,34.75
2023-04-17T22:49:03.780Z,36.50
2023-04-17T22:53:02.763Z,31.25
2023-04-17T22:56:24.533Z,34.25
2023-04-17T23:00:24.291Z,36.25
2023-04-17T23:04:04.521Z,31.25
2023-04-17T23:07:43.873Z,31.25
2023-04-17T23:10:46.613Z,37.00
2023-04-17T23:13:49.204Z,39.00
2023-04-17T23:16:53.128Z,37.00
2023-04-17T23:19:55.894Z,36.75
2023-04-17T23:22:58.565Z,36.00
2023-04-17T23:26:00.889Z,34.75
2023-04-17T23:29:04.029Z,30.25
2023-04-17T23:32:07.691Z,42.25
2023-04-17T23:35:10.392Z,36.50
2023-04-17T23:38:12.741Z,38.75
2023-04-17T23:41:15.489Z,36.25
2023-04-17T23:44:17.864Z,34.00
2023-04-17T23:47:20.833Z,31.75
2023-04-17T23:50:23.345Z,36.50
2023-04-17T23:53:26.445Z,35.00
2023-04-17T23:56:31.620Z,34.50
2023-04-17T23:59:34.453Z,39.00
